createdAt,value
2022-12-07T00:01:32.735Z,11.93
2022-12-07T00:04:05.678Z,12.90
2022-12-07T00:06:38.445Z,9.80
2022-12-07T00:09:07.764Z,12.73
2022-12-07T00:11:35.467Z,22.13
2022-12-07T00:14:06.712Z,15.33
2022-12-07T00:16:34.709Z,15.50
2022-12-07T00:19:03.360Z,11.47
2022-12-07T00:21:33.869Z,11.33
2022-12-07T00:24:02.052Z,11.67
2022-12-07T00:26:31.614Z,17.97
2022-12-07T00:29:08.407Z,12.33
2022-12-07T00:31:40.010Z,12.93
2022-12-07T00:34:19.574Z,14.23
2022-12-07T00:36:46.932Z,20.30
2022-12-07T00:39:14.146Z,11.80
2022-12-07T00:41:41.092Z,12.27
2022-12-07T00:44:08.042Z,11.20
2022-12-07T00:46:35.252Z,10.90
2022-12-07T00:49:02.167Z,14.47
2022-12-07T00:51:29.582Z,18.30
2022-12-07T00:53:56.931Z,11.90
2022-12-07T00:56:29.215Z,12.83
2022-12-07T00:58:58.733Z,16.80
2022-12-07T01:01:28.137Z,14.50
2022-12-07T01:03:55.620Z,15.73
2022-12-07T01:06:24.383Z,13.20
2022-12-07T01:08:51.854Z,15.40
2022-12-07T01:11:23.462Z,16.47
2022-12-07T01:13:56.267Z,24.33
2022-12-07T01:16:25.552Z,13.67
2022-12-07T01:18:54.839Z,15.43
2022-12-07T01:21:25.315Z,14.23
2022-12-07T01:23:53.352Z,13.60
2022-12-07T01:26:24.276Z,17.23
2022-12-07T01:28:52.561Z,12.73
2022-12-07T01:31:21.854Z,19.37
2022-12-07T01:33:52.240Z,18.60
2022-12-07T01:36:30.907Z,16.00
2022-12-07T01:39:01.178Z,12.33
2022-12-07T01:41:32.097Z,16.40
2022-12-07T01:44:27.940Z,13.17
2022-12-07T01:47:03.773Z,15.27
2022-12-07T01:49:42.991Z,16.27
2022-12-07T01:52:31.221Z,13.83
2022-12-07T01:55:02.674Z,15.77
2022-12-07T01:57:32.037Z,17.70
2022-12-07T01:59:59.573Z,14.70
2022-12-07T02:02:58.415Z,18.10
2022-12-07T02:05:27.417Z,15.33
2022-12-07T02:07:57.138Z,20.73
2022-12-07T02:10:32.084Z,15.33
2022-12-07T02:13:16.824Z,15.53
2022-12-07T02:16:13.380Z,17.77
2022-12-07T02:19:11.213Z,12.50
2022-12-07T02:22:01.147Z,16.63
2022-12-07T02:24:50.560Z,15.37
2022-12-07T02:27:33.890Z,15.63
2022-12-07T02:30:09.335Z,17.33
2022-12-07T02:32:55.476Z,23.00
2022-12-07T02:35:33.497Z,19.73
2022-12-07T02:38:09.643Z,19.13
2022-12-07T02:40:55.622Z,24.80
2022-12-07T02:43:29.184Z,21.03
2022-12-07T02:46:00.895Z,22.67
2022-12-07T02:48:29.216Z,15.77
2022-12-07T02:50:56.221Z,19.23
2022-12-07T02:53:36.332Z,20.37
2022-12-07T02:56:14.451Z,16.27
2022-12-07T02:59:10.659Z,15.00
2022-12-07T03:01:52.194Z,24.10
2022-12-07T03:04:28.680Z,23.83
2022-12-07T03:07:05.521Z,20.10
2022-12-07T03:09:42.297Z,20.90
2022-12-07T03:12:24.475Z,16.77
2022-12-07T03:15:07.259Z,24.93
2022-12-07T03:17:37.578Z,26.07
2022-12-07T03:20:10.556Z,25.70
2022-12-07T03:22:40.121Z,26.33
2022-12-07T03:25:11.462Z,14.07
2022-12-07T03:27:47.149Z,19.83
2022-12-07T03:30:20.781Z,22.30
2022-12-07T03:33:07.346Z,16.10
2022-12-07T03:36:01.624Z,16.40
2022-12-07T03:38:39.220Z,25.30
2022-12-07T03:41:12.265Z,18.30
2022-12-07T03:43:40.251Z,21.47
2022-12-07T03:46:21.132Z,17.80
2022-12-07T03:49:09.566Z,22.83
2022-12-07T03:52:08.079Z,22.83
2022-12-07T03:54:41.660Z,24.67
2022-12-07T03:57:10.140Z,17.17
2022-12-07T03:59:39.449Z,19.47
2022-12-07T04:02:08.581Z,16.30
2022-12-07T04:04:36.244Z,15.50
2022-12-07T04:07:03.828Z,21.00
2022-12-07T04:09:30.841Z,18.00
2022-12-07T04:11:57.827Z,21.57
2022-12-07T04:14:24.791Z,23.60
2022-12-07T04:16:57.419Z,22.67
2022-12-07T04:19:30.585Z,24.90
2022-12-07T04:21:59.709Z,30.97
2022-12-07T04:24:27.027Z,27.33
2022-12-07T04:26:54.633Z,27.93
2022-12-07T04:29:22.502Z,19.53
2022-12-07T04:31:50.617Z,30.07
2022-12-07T04:34:18.549Z,30.03
2022-12-07T04:36:46.845Z,20.37
2022-12-07T04:39:27.727Z,20.53
2022-12-07T04:41:55.672Z,17.33
2022-12-07T04:44:23.271Z,21.27
2022-12-07T04:46:51.065Z,17.30
2022-12-07T04:49:19.290Z,14.53
2022-12-07T04:51:47.195Z,19.70
2022-12-07T04:54:15.728Z,20.37
2022-12-07T04:56:43.606Z,19.47
2022-12-07T04:59:12.281Z,19.40
2022-12-07T05:01:40.213Z,15.53
2022-12-07T05:04:07.704Z,13.97
2022-12-07T05:06:35.327Z,16.77
2022-12-07T05:09:03.768Z,13.73
2022-12-07T05:11:40.669Z,22.93
2022-12-07T05:14:13.116Z,17.97
2022-12-07T05:16:41.680Z,21.00
2022-12-07T05:19:09.598Z,14.13
2022-12-07T05:21:37.937Z,15.70
2022-12-07T05:24:06.458Z,16.83
2022-12-07T05:26:35.399Z,13.40
2022-12-07T05:29:03.398Z,15.87
2022-12-07T05:31:30.795Z,16.80
2022-12-07T05:33:58.167Z,13.60
2022-12-07T05:36:25.550Z,11.87
2022-12-07T05:38:52.946Z,14.50
2022-12-07T05:41:39.667Z,14.83
2022-12-07T05:44:07.389Z,12.17
2022-12-07T05:46:35.210Z,9.80
2022-12-07T05:49:02.993Z,11.20
2022-12-07T05:51:30.328Z,15.73
2022-12-07T05:53:57.728Z,10.73
2022-12-07T05:56:25.359Z,14.47
2022-12-07T05:59:11.125Z,11.97
2022-12-07T06:01:38.582Z,19.87
2022-12-07T06:04:05.928Z,23.43
2022-12-07T06:06:33.379Z,16.90
2022-12-07T06:09:00.723Z,23.47
2022-12-07T06:11:46.651Z,21.60
2022-12-07T06:14:14.162Z,18.87
2022-12-07T06:16:41.917Z,21.17
2022-12-07T06:19:09.356Z,23.83
2022-12-07T06:21:36.692Z,26.93
2022-12-07T06:24:04.242Z,29.40
2022-12-07T06:26:31.692Z,27.93
2022-12-07T06:28:59.112Z,19.67
2022-12-07T06:31:26.667Z,33.50
2022-12-07T06:34:08.611Z,21.93
2022-12-07T06:36:36.047Z,21.67
2022-12-07T06:39:03.736Z,24.33
2022-12-07T06:41:31.203Z,20.40
2022-12-07T06:43:58.516Z,19.77
2022-12-07T06:46:26.433Z,35.60
2022-12-07T06:48:53.734Z,29.17
2022-12-07T06:51:21.055Z,27.77
2022-12-07T06:53:48.378Z,28.60
2022-12-07T06:56:15.772Z,28.27
2022-12-07T06:58:43.117Z,25.93
2022-12-07T07:01:16.126Z,28.40
2022-12-07T07:03:43.999Z,24.03
2022-12-07T07:06:11.940Z,28.20
2022-12-07T07:08:39.935Z,21.33
2022-12-07T07:11:08.191Z,27.90
2022-12-07T07:13:35.356Z,31.97
2022-12-07T07:16:02.732Z,26.47
2022-12-07T07:18:30.427Z,32.83
2022-12-07T07:20:57.497Z,38.37
2022-12-07T07:23:25.044Z,24.70
2022-12-07T07:25:51.985Z,42.50
2022-12-07T07:28:19.412Z,47.00
2022-12-07T07:30:46.678Z,36.67
2022-12-07T07:33:13.987Z,39.43
2022-12-07T07:35:41.025Z,45.03
2022-12-07T07:38:08.730Z,34.53
2022-12-07T07:40:36.822Z,33.90
2022-12-07T07:43:03.964Z,27.57
2022-12-07T07:45:30.966Z,23.90
2022-12-07T07:47:58.368Z,23.53
2022-12-07T07:50:25.323Z,34.40
2022-12-07T07:52:52.476Z,22.53
2022-12-07T07:55:19.634Z,19.53
2022-12-07T07:57:52.881Z,37.70
2022-12-07T08:00:22.413Z,117.93
2022-12-07T08:02:49.737Z,58.30
2022-12-07T08:05:17.243Z,24.00
2022-12-07T08:07:44.896Z,26.67
2022-12-07T08:10:13.910Z,25.17
2022-12-07T08:13:02.495Z,26.40
2022-12-07T08:15:32.385Z,22.17
2022-12-07T08:18:00.205Z,35.77
2022-12-07T08:20:27.648Z,32.53
2022-12-07T08:22:55.232Z,25.10
2022-12-07T08:25:26.075Z,20.47
2022-12-07T08:27:53.756Z,20.30
2022-12-07T08:30:21.465Z,26.47
2022-12-07T08:32:49.788Z,22.67
2022-12-07T08:35:17.476Z,19.20
2022-12-07T08:37:44.831Z,30.63
2022-12-07T08:40:16.249Z,26.13
2022-12-07T08:42:50.898Z,21.77
2022-12-07T08:45:24.929Z,23.80
2022-12-07T08:47:58.706Z,27.70
2022-12-07T08:50:26.816Z,30.40
2022-12-07T08:52:56.383Z,26.53
2022-12-07T08:55:23.941Z,24.33
2022-12-07T08:57:51.690Z,24.57
2022-12-07T09:00:19.349Z,12.27
2022-12-07T09:02:47.505Z,19.27
2022-12-07T09:05:16.906Z,19.40
2022-12-07T09:07:52.860Z,14.27
2022-12-07T09:10:20.547Z,14.53
2022-12-07T09:12:47.889Z,17.67
2022-12-07T09:15:15.285Z,14.67
2022-12-07T09:17:42.728Z,18.70
2022-12-07T09:20:10.827Z,16.20
2022-12-07T09:22:38.190Z,15.83
2022-12-07T09:25:06.706Z,13.20
2022-12-07T09:27:34.109Z,17.80
2022-12-07T09:30:01.864Z,13.73
2022-12-07T09:32:29.393Z,15.60
2022-12-07T09:34:56.883Z,11.30
2022-12-07T09:37:24.271Z,15.63
2022-12-07T09:39:51.767Z,31.03
2022-12-07T09:42:31.441Z,11.20
2022-12-07T09:44:59.800Z,17.23
2022-12-07T09:47:27.814Z,15.30
2022-12-07T09:50:00.274Z,11.63
2022-12-07T09:52:32.954Z,15.03
2022-12-07T09:55:03.096Z,11.03
2022-12-07T09:57:32.858Z,13.30
2022-12-07T10:00:04.205Z,13.67
2022-12-07T10:02:39.628Z,13.07
2022-12-07T10:05:11.798Z,10.10
2022-12-07T10:07:39.463Z,9.17
2022-12-07T10:10:19.113Z,11.20
2022-12-07T10:13:04.526Z,14.63
2022-12-07T10:15:53.353Z,10.40
2022-12-07T10:18:33.720Z,11.63
2022-12-07T10:21:10.078Z,21.07
2022-12-07T10:24:03.801Z,12.43
2022-12-07T10:26:47.902Z,9.07
2022-12-07T10:29:20.186Z,11.67
2022-12-07T10:32:13.208Z,13.23
2022-12-07T10:34:42.837Z,20.63
2022-12-07T10:37:18.147Z,11.33
2022-12-07T10:39:52.153Z,11.13
2022-12-07T10:42:29.294Z,7.63
2022-12-07T10:45:26.121Z,12.20
2022-12-07T10:48:12.794Z,9.50
2022-12-07T10:51:21.981Z,12.77
2022-12-07T10:53:59.477Z,10.17
2022-12-07T10:56:51.122Z,5.27
2022-12-07T10:59:29.613Z,6.87
2022-12-07T11:02:22.766Z,6.17
2022-12-07T11:05:05.553Z,7.47
2022-12-07T11:08:11.092Z,5.60
2022-12-07T11:10:41.269Z,6.87
2022-12-07T11:13:29.357Z,7.47
2022-12-07T11:16:18.274Z,5.77
2022-12-07T11:19:00.439Z,6.73
2022-12-07T11:21:40.619Z,12.23
2022-12-07T11:24:11.538Z,8.77
2022-12-07T11:26:57.289Z,11.10
2022-12-07T11:29:46.208Z,9.00
2022-12-07T11:32:16.431Z,14.93
2022-12-07T11:34:55.624Z,14.90
2022-12-07T11:37:36.471Z,10.37
2022-12-07T11:40:21.816Z,7.40
2022-12-07T11:43:11.932Z,15.80
2022-12-07T11:45:43.307Z,9.63
2022-12-07T11:48:20.063Z,9.93
2022-12-07T11:50:51.409Z,28.20
2022-12-07T11:53:27.820Z,17.20
2022-12-07T11:56:15.060Z,12.77
2022-12-07T11:59:05.128Z,7.93
2022-12-07T12:01:34.732Z,9.20
2022-12-07T12:04:11.065Z,9.10
2022-12-07T12:06:43.680Z,6.93
2022-12-07T12:15:48.848Z,13.03
2022-12-07T12:18:22.325Z,11.20
2022-12-07T12:20:58.018Z,11.47
2022-12-07T12:23:57.912Z,9.50
2022-12-07T12:26:27.598Z,13.13
2022-12-07T12:29:01.983Z,13.57
2022-12-07T12:31:29.281Z,12.67
2022-12-07T12:33:59.389Z,8.33
2022-12-07T12:36:44.251Z,9.97
2022-12-07T12:39:17.615Z,19.60
2022-12-07T12:41:47.678Z,14.07
2022-12-07T12:44:20.769Z,11.17
2022-12-07T12:47:01.370Z,15.67
2022-12-07T12:49:33.641Z,10.10
2022-12-07T12:52:09.946Z,17.70
2022-12-07T12:54:37.952Z,13.90
2022-12-07T12:57:25.822Z,12.20
2022-12-07T12:59:53.066Z,8.93
2022-12-07T13:02:29.966Z,11.00
2022-12-07T13:05:01.394Z,9.77
2022-12-07T13:07:56.481Z,14.90
2022-12-07T13:10:33.420Z,13.30
2022-12-07T13:13:15.919Z,15.80
2022-12-07T13:15:54.933Z,16.33
2022-12-07T13:18:34.169Z,16.90
2022-12-07T13:21:10.602Z,15.50
2022-12-07T13:23:57.055Z,13.60
2022-12-07T13:26:43.332Z,17.10
2022-12-07T13:29:17.624Z,14.50
2022-12-07T13:31:52.925Z,15.83
2022-12-07T13:34:37.598Z,16.47
2022-12-07T13:37:26.073Z,13.03
2022-12-07T13:39:58.487Z,18.43
2022-12-07T13:42:29.637Z,13.37
2022-12-07T13:44:58.984Z,19.50
2022-12-07T13:47:53.050Z,13.50
2022-12-07T13:50:32.117Z,12.23
2022-12-07T13:53:01.601Z,12.40
2022-12-07T13:55:29.835Z,14.60
2022-12-07T13:57:58.043Z,22.47
2022-12-07T14:00:27.983Z,11.93
2022-12-07T14:03:01.413Z,17.27
2022-12-07T14:05:36.561Z,39.73
2022-12-07T14:08:11.828Z,18.77
2022-12-07T14:10:54.839Z,11.20
2022-12-07T14:13:35.839Z,21.47
2022-12-07T14:16:05.291Z,20.67
2022-12-07T14:18:41.120Z,19.87
2022-12-07T14:21:11.564Z,25.13
2022-12-07T14:23:40.461Z,19.90
2022-12-07T14:26:21.456Z,16.67
2022-12-07T14:28:49.181Z,17.57
2022-12-07T14:31:29.584Z,25.87
2022-12-07T14:34:01.134Z,16.00
2022-12-07T14:36:28.623Z,27.03
2022-12-07T14:38:58.941Z,24.00
2022-12-07T14:41:44.969Z,20.40
2022-12-07T14:44:35.255Z,17.70
2022-12-07T14:49:48.096Z,13.10
2022-12-07T14:55:30.732Z,20.53
2022-12-07T14:57:59.692Z,14.90
2022-12-07T15:00:28.690Z,48.40
2022-12-07T15:02:56.583Z,49.40
2022-12-07T15:05:24.381Z,51.93
2022-12-07T15:07:52.101Z,40.30
2022-12-07T15:10:24.421Z,48.20
2022-12-07T15:12:52.427Z,38.23
2022-12-07T15:15:19.815Z,25.07
2022-12-07T15:17:47.383Z,15.20
2022-12-07T15:20:17.653Z,21.20
2022-12-07T15:22:45.092Z,27.57
2022-12-07T15:25:14.778Z,19.97
2022-12-07T15:27:42.341Z,17.20
2022-12-07T15:30:09.935Z,23.80
2022-12-07T15:32:37.465Z,23.83
2022-12-07T15:35:05.591Z,18.20
2022-12-07T15:37:33.190Z,18.37
2022-12-07T15:40:07.150Z,21.90
2022-12-07T15:42:36.159Z,18.80
2022-12-07T15:45:05.139Z,30.33
2022-12-07T15:48:19.803Z,36.07
2022-12-07T15:50:31.426Z,24.37
2022-12-07T15:52:58.801Z,20.40
2022-12-07T15:55:26.132Z,19.80
2022-12-07T15:57:53.528Z,23.33
2022-12-07T16:00:21.306Z,12.00
2022-12-07T16:02:48.762Z,21.23
2022-12-07T16:05:16.202Z,14.10
2022-12-07T16:07:43.765Z,25.40
2022-12-07T16:10:11.323Z,25.87
2022-12-07T16:12:38.588Z,19.03
2022-12-07T16:15:06.772Z,22.20
2022-12-07T16:17:34.198Z,26.20
2022-12-07T16:20:01.515Z,26.83
2022-12-07T16:22:28.861Z,27.20
2022-12-07T16:24:56.215Z,24.30
2022-12-07T16:27:23.490Z,25.10
2022-12-07T16:29:50.856Z,25.53
2022-12-07T16:32:18.208Z,41.63
2022-12-07T16:34:45.538Z,30.93
2022-12-07T16:37:12.904Z,41.47
2022-12-07T16:39:40.496Z,34.63
2022-12-07T16:42:07.810Z,29.40
2022-12-07T16:44:35.099Z,38.20
2022-12-07T16:47:02.660Z,25.27
2022-12-07T16:49:30.189Z,27.43
2022-12-07T16:52:18.808Z,26.93
2022-12-07T16:54:45.664Z,31.40
2022-12-07T16:57:16.770Z,30.40
2022-12-07T16:59:49.088Z,33.57
2022-12-07T17:02:16.452Z,28.20
2022-12-07T17:04:43.804Z,33.50
2022-12-07T17:07:11.753Z,33.97
2022-12-07T17:09:39.095Z,32.60
2022-12-07T17:12:07.678Z,27.87
2022-12-07T17:14:53.461Z,32.27
2022-12-07T17:17:20.935Z,31.27
2022-12-07T17:19:48.303Z,34.50
2022-12-07T17:22:15.631Z,37.17
2022-12-07T17:24:42.999Z,32.07
2022-12-07T17:27:10.307Z,40.37
2022-12-07T17:29:37.761Z,53.87
2022-12-07T17:32:05.811Z,37.87
2022-12-07T17:34:33.882Z,43.20
2022-12-07T17:37:01.248Z,59.57
2022-12-07T17:39:28.880Z,42.80
2022-12-07T17:42:14.737Z,40.03
2022-12-07T17:44:42.651Z,31.83
2022-12-07T17:47:11.267Z,29.00
2022-12-07T17:49:38.638Z,30.60
2022-12-07T17:52:24.531Z,33.23
2022-12-07T17:54:51.849Z,35.90
2022-12-07T17:57:19.347Z,31.30
2022-12-07T17:59:46.741Z,28.30
2022-12-07T18:02:14.092Z,27.47
2022-12-07T18:04:44.198Z,25.70
2022-12-07T18:07:11.726Z,24.23
2022-12-07T18:09:39.243Z,26.90
2022-12-07T18:12:07.136Z,25.93
2022-12-07T18:14:34.682Z,30.50
2022-12-07T18:17:02.343Z,26.23
2022-12-07T18:19:29.963Z,28.03
2022-12-07T18:21:57.352Z,33.23
2022-12-07T18:24:24.791Z,39.67
2022-12-07T18:26:53.297Z,40.60
2022-12-07T18:29:21.428Z,34.43
2022-12-07T18:31:48.845Z,34.07
2022-12-07T18:34:17.822Z,28.10
2022-12-07T18:36:47.456Z,41.63
2022-12-07T18:39:15.837Z,35.03
2022-12-07T18:41:43.679Z,32.50
2022-12-07T18:44:13.417Z,30.63
2022-12-07T18:46:42.413Z,35.27
2022-12-07T18:49:12.316Z,37.97
2022-12-07T18:51:39.809Z,31.87
2022-12-07T18:54:07.632Z,40.90
2022-12-07T18:56:35.047Z,46.83
2022-12-07T18:59:22.023Z,34.67
2022-12-07T19:01:51.641Z,40.70
2022-12-07T19:04:19.079Z,31.10
2022-12-07T19:06:48.261Z,41.80
2022-12-07T19:09:16.617Z,40.93
2022-12-07T19:11:50.239Z,37.47
2022-12-07T19:14:27.584Z,39.97
2022-12-07T19:16:57.362Z,36.10
2022-12-07T19:19:30.458Z,32.47
2022-12-07T19:21:57.991Z,32.50
2022-12-07T19:24:25.361Z,34.27
2022-12-07T19:26:53.117Z,45.57
2022-12-07T19:29:20.710Z,45.80
2022-12-07T19:31:48.167Z,46.93
2022-12-07T19:34:17.561Z,48.80
2022-12-07T19:36:45.687Z,55.47
2022-12-07T19:39:15.561Z,50.67
2022-12-07T19:41:44.701Z,39.17
2022-12-07T19:44:18.175Z,42.23
2022-12-07T19:46:47.307Z,50.00
2022-12-07T19:49:16.179Z,47.93
2022-12-07T19:51:45.309Z,47.57
2022-12-07T19:54:14.868Z,48.90
2022-12-07T19:56:43.520Z,45.00
2022-12-07T19:59:12.163Z,46.10
2022-12-07T20:01:42.768Z,36.33
2022-12-07T20:04:13.014Z,46.47
2022-12-07T20:06:40.544Z,44.03
2022-12-07T20:09:07.957Z,52.10
2022-12-07T20:11:55.319Z,56.93
2022-12-07T20:14:23.015Z,50.70
2022-12-07T20:16:50.613Z,50.47
2022-12-07T20:19:18.687Z,47.43
2022-12-07T20:21:46.576Z,46.93
2022-12-07T20:24:22.715Z,48.43
2022-12-07T20:26:51.190Z,43.17
2022-12-07T20:29:21.616Z,36.43
2022-12-07T20:31:49.622Z,42.20
2022-12-07T20:34:17.382Z,44.97
2022-12-07T20:36:44.766Z,39.37
2022-12-07T20:39:12.514Z,46.03
2022-12-07T20:41:58.944Z,37.07
2022-12-07T20:44:26.353Z,38.93
2022-12-07T20:46:53.695Z,38.53
2022-12-07T20:49:21.265Z,39.63
2022-12-07T20:51:48.760Z,43.40
2022-12-07T20:54:16.263Z,39.80
2022-12-07T20:56:43.592Z,40.93
2022-12-07T20:59:14.553Z,39.37
2022-12-07T21:01:42.773Z,32.30
2022-12-07T21:04:12.537Z,42.50
2022-12-07T21:06:39.976Z,47.20
2022-12-07T21:09:07.661Z,46.43
2022-12-07T21:11:35.079Z,50.13
2022-12-07T21:14:02.498Z,44.80
2022-12-07T21:16:31.068Z,35.27
2022-12-07T21:19:02.468Z,41.23
2022-12-07T21:21:31.002Z,50.37
2022-12-07T21:24:02.443Z,34.93
2022-12-07T21:26:30.703Z,37.03
2022-12-07T21:28:58.382Z,34.60
2022-12-07T21:31:26.849Z,33.90
2022-12-07T21:33:54.367Z,40.83
2022-12-07T21:36:23.711Z,35.57
2022-12-07T21:38:51.576Z,37.33
2022-12-07T21:41:23.105Z,41.47
2022-12-07T21:43:50.910Z,40.57
2022-12-07T21:46:19.212Z,34.57
2022-12-07T21:48:54.467Z,38.97
2022-12-07T21:51:23.612Z,38.63
2022-12-07T21:53:52.511Z,52.80
2022-12-07T21:56:22.723Z,35.43
2022-12-07T21:58:51.079Z,35.13
2022-12-07T22:01:20.293Z,42.87
2022-12-07T22:03:48.213Z,34.37
2022-12-07T22:06:17.144Z,33.07
2022-12-07T22:08:44.607Z,37.07
2022-12-07T22:11:13.083Z,32.10
2022-12-07T22:14:04.134Z,29.73
2022-12-07T22:16:34.967Z,30.63
2022-12-07T22:19:02.652Z,37.97
2022-12-07T22:21:30.852Z,41.47
2022-12-07T22:23:58.291Z,44.80
2022-12-07T22:26:25.939Z,35.57
2022-12-07T22:28:53.507Z,39.57
2022-12-07T22:31:21.358Z,49.70
2022-12-07T22:33:49.011Z,35.67
2022-12-07T22:36:16.701Z,45.10
2022-12-07T22:38:44.274Z,50.30
2022-12-07T22:41:15.549Z,45.20
2022-12-07T22:43:42.897Z,44.83
2022-12-07T22:46:10.313Z,48.17
2022-12-07T22:48:37.885Z,34.87
2022-12-07T22:51:05.273Z,40.60
2022-12-07T22:53:32.653Z,44.67
2022-12-07T22:56:00.042Z,41.40
2022-12-07T22:58:27.385Z,55.47
2022-12-07T23:00:55.793Z,42.23
2022-12-07T23:03:23.327Z,48.47
2022-12-07T23:05:52.182Z,42.73
2022-12-07T23:08:19.577Z,49.80
2022-12-07T23:10:48.551Z,62.03
2022-12-07T23:13:32.752Z,45.47
2022-12-07T23:16:11.544Z,33.90
2022-12-07T23:18:40.277Z,38.80
2022-12-07T23:21:08.446Z,38.27
2022-12-07T23:23:35.839Z,44.07
2022-12-07T23:26:08.386Z,33.33
2022-12-07T23:28:36.512Z,29.63
2022-12-07T23:31:10.807Z,27.77
2022-12-07T23:33:38.249Z,24.40
2022-12-07T23:36:16.691Z,27.43
2022-12-07T23:38:45.663Z,30.30
2022-12-07T23:41:15.561Z,28.40
2022-12-07T23:43:43.349Z,23.87
2022-12-07T23:46:12.870Z,24.50
2022-12-07T23:48:40.825Z,21.87
2022-12-07T23:51:09.320Z,25.80
2022-12-07T23:53:38.755Z,28.00
2022-12-07T23:56:06.415Z,35.27
2022-12-07T23:58:34.133Z,43.13
